Terminal Aerodrome Forecast
Issued by NWS Wakefield, VA

Home | Current Version | Previous Version | Text Only | Print | Product List | Glossary On
Versions: 1 2 3 4 5 6 7 8 9 10 11 12 13
000
FTUS41 KAKQ 241100
TAFSBY
TAF
KSBY 241120Z 2412/2512 32008KT P6SM SKC
     FM241400 33014G21KT P6SM SCT150
     FM242300 29004KT P6SM BKN250
     FM250200 VRB02KT P6SM BKN250=

USA.gov is the U.S. government's official web portal to all federal, state and local government web resources and services.